Meteo Giornale » Osservazioni meteo Italia » Falconara

ore: 15:50 - Osservazioni Meteo Falconara
Lat. 43° 37' N Lon. 13° 22' E Alt. 12 metri s.l.m.

sereno Europe/Rome

25 °C

Sereno

Temp. 24 Ore

14 °C

25 °C

Nord/Nord-Est

14.8 Km/h

Dew point 12 °C

Umidità 44 %

Visibilità  10 Km

Il sole sorge alle ore 05:28

Il sole tramonta alle ore 20:39

Data e Ora Cielo e Fenomeni T °C DP °C Um. % Pres. hPa Vis. km Vento km/h
Oggi h: 15:50 sereno Sereno 25 12 44 1020 10 N/NE 14.8
Oggi h: 14:50 sereno Sereno 25 13 47 1020 10 NE 14.8
Oggi h: 13:50 sereno Sereno 24 15 57 1021 10 N/NE 14.8
Oggi h: 12:50 sereno Sereno 24 14 53 1021 10 NE 14.8
Oggi h: 11:50 sereno Sereno 23 15 60 1021 10 NE 13
Oggi h: 10:50 sereno Sereno 23 15 60 1021 10 N 7.4
Oggi h: 09:50 sereno Sereno 23 14 56 1022 10 N 7.4
Oggi h: 08:50 poco_nuvoloso Poco Nuvoloso 21 13 60 1022 10 N 3.7
Oggi h: 07:50 nuvoloso Nuvoloso 18 13 72 1021 10 N 5.5
Oggi h: 06:50 nuvoloso Nuvoloso 15 12 82 1021 10 N 5.5
Oggi h: 05:50 nuvoloso Nuvoloso 14 11 82 1021 10 N 5.5
Oggi h: 04:50 nuvoloso Nuvoloso 14 11 82 1021 10 S 7.4
Oggi h: 03:50 sereno Sereno 14 12 87 1021 10 N 5.5
Oggi h: 02:50 sereno Sereno 14 12 87 1021 10 S 7.4
Oggi h: 01:50 sereno Sereno 14 12 87 1021 10 S 7.4
Oggi h: 00:50 sereno Sereno 15 12 82 1021 10 S 7.4
Ieri h: 23:50 sereno Sereno 16 12 77 1021 10 S 7.4
Ieri h: 22:50 sereno Sereno 16 13 82 1020 10 N 3.7
Ieri h: 21:50 sereno Sereno 19 14 72 1020 10 N 5.5
Ieri h: 20:50 sereno Sereno 21 14 64 1019 10 N 3.7
Ieri h: 19:50 sereno Sereno 22 15 64 1019 10 N 9.3
Ieri h: 18:50 sereno Sereno 23 15 60 1019 10 N/NO 9.3
Ieri h: 17:50 sereno Sereno 24 14 53 1019 10 N/NO 11.1
Ieri h: 16:50 sereno Sereno 24 13 50 1019 10 N/NO 13